Swinoujscie, Poland
Current Conditions -  °F | °C
As of 11:20 AM on Thursday 27 Nov 2014 (Local Time) from EDAH Reporting Station
Scattered Clouds Scattered Clouds  
Wind Chill: 29°   Ceiling: Unl
Heat Index: 37°   Visibility: 5mi
Dew Point: 34°   Wind: 14mph
Humidity: 87%   Direction: 110°ESE
Pressure: 30.12"   Gusts: NA
Location:  53.91°N, 14.25°E
Report Text: EDAH 270920Z 11012KT 8000 SCT010 03/01 Q1020
Loading
Personal Weather Stations






























Interactive Weather Map New forecast layout! Learn more

10-Day Weather Forecast

Advertisements
Track Severe Weather on mobile